Terminal Aerodrome Forecast
Issued by NWS

Home | Current Version | Previous Version | Text Only | Print | Product List | Glossary On
Versions: 1 2 3 4 5 6 7 8 9 10 11 12 13 14 15 16 17 18 19 20 21 22 23 24 25 26 27 28 29 30 31 32 33 34 35
678
FTUS43 KILX 181128
TAFDEC
TAF
KDEC 181128Z 1812/1912 31009KT P6SM OVC007
     FM181600 24006KT P6SM BKN010
     FM182000 22007KT P6SM SCT025
     FM190000 20005KT P6SM SCT150
     FM190900 15005KT 4SM BR SCT100=

USA.gov is the U.S. government's official web portal to all federal, state and local government web resources and services.